createdAt,value
2019-05-15T00:00:23.808Z,1018.92
2019-05-15T00:01:23.771Z,1018.90
2019-05-15T00:02:23.749Z,1018.93
2019-05-15T00:03:23.727Z,1018.97
2019-05-15T00:04:23.704Z,1018.91
2019-05-15T00:05:23.696Z,1018.92
2019-05-15T00:06:23.661Z,1018.92
2019-05-15T00:07:23.641Z,1018.93
2019-05-15T00:08:23.624Z,1018.88
2019-05-15T00:09:23.599Z,1018.86
2019-05-15T00:10:23.612Z,1018.89
2019-05-15T00:11:23.556Z,1018.89
2019-05-15T00:12:23.538Z,1018.86
2019-05-15T00:13:23.511Z,1018.89
2019-05-15T00:14:23.490Z,1018.86
2019-05-15T00:15:23.468Z,1018.87
2019-05-15T00:16:23.476Z,1018.89
2019-05-15T00:17:23.425Z,1018.84
2019-05-15T00:18:23.407Z,1018.88
2019-05-15T00:19:23.383Z,1018.85
2019-05-15T00:20:23.359Z,1018.85
2019-05-15T00:21:23.350Z,1018.82
2019-05-15T00:22:23.315Z,1018.81
2019-05-15T00:23:23.295Z,1018.84
2019-05-15T00:24:23.277Z,1018.81
2019-05-15T00:25:23.255Z,1018.82
2019-05-15T00:26:23.239Z,1018.76
2019-05-15T00:27:23.206Z,1018.78
2019-05-15T00:28:23.185Z,1018.79
2019-05-15T00:29:23.162Z,1018.79
2019-05-15T00:30:23.141Z,1018.78
2019-05-15T00:31:23.140Z,1018.80
2019-05-15T00:32:23.100Z,1018.81
2019-05-15T00:33:23.076Z,1018.80
2019-05-15T00:34:23.053Z,1018.79
2019-05-15T00:35:23.031Z,1018.78
2019-05-15T00:36:23.029Z,1018.78
2019-05-15T00:37:22.988Z,1018.80
2019-05-15T00:38:22.964Z,1018.80
2019-05-15T00:39:22.944Z,1018.77
2019-05-15T00:40:22.926Z,1018.78
2019-05-15T00:41:22.906Z,1018.74
2019-05-15T00:42:22.900Z,1018.78
2019-05-15T00:43:22.865Z,1018.74
2019-05-15T00:44:22.833Z,1018.72
2019-05-15T00:45:22.812Z,1018.74
2019-05-15T00:46:22.789Z,1018.74
2019-05-15T00:47:22.782Z,1018.68
2019-05-15T00:48:22.747Z,1018.70
2019-05-15T00:49:22.724Z,1018.70
2019-05-15T00:50:22.707Z,1018.65
2019-05-15T00:51:22.681Z,1018.67
2019-05-15T00:52:22.679Z,1018.69
2019-05-15T00:53:22.636Z,1018.68
2019-05-15T00:54:22.616Z,1018.63
2019-05-15T00:55:22.594Z,1018.68
2019-05-15T00:56:22.614Z,1018.65
2019-05-15T00:57:22.561Z,1018.64
2019-05-15T00:58:22.526Z,1018.66
2019-05-15T00:59:26.631Z,1018.65
2019-05-15T01:00:22.483Z,1018.65
2019-05-15T01:01:22.460Z,1018.60
2019-05-15T01:02:22.448Z,1018.61
2019-05-15T01:03:22.425Z,1018.63
2019-05-15T01:04:22.395Z,1018.62
2019-05-15T01:05:22.368Z,1018.66
2019-05-15T01:06:22.347Z,1018.66
2019-05-15T01:07:22.368Z,1018.66
2019-05-15T01:08:22.304Z,1018.67
2019-05-15T01:09:22.284Z,1018.64
2019-05-15T01:10:22.261Z,1018.60
2019-05-15T01:11:22.241Z,1018.64
2019-05-15T01:12:22.217Z,1018.64
2019-05-15T01:13:22.210Z,1018.63
2019-05-15T01:14:22.175Z,1018.62
2019-05-15T01:15:22.152Z,1018.58
2019-05-15T01:16:22.126Z,1018.53
2019-05-15T01:17:22.104Z,1018.53
2019-05-15T01:18:22.097Z,1018.53
2019-05-15T01:19:22.067Z,1018.53
2019-05-15T01:20:22.041Z,1018.55
2019-05-15T01:21:22.018Z,1018.52
2019-05-15T01:22:22.010Z,1018.52
2019-05-15T01:23:21.987Z,1018.53
2019-05-15T01:24:21.949Z,1018.49
2019-05-15T01:25:21.929Z,1018.51
2019-05-15T01:26:21.908Z,1018.48
2019-05-15T01:27:21.886Z,1018.54
2019-05-15T01:28:21.898Z,1018.50
2019-05-15T01:29:21.839Z,1018.50
2019-05-15T01:30:21.817Z,1018.48
2019-05-15T01:31:21.794Z,1018.48
2019-05-15T01:32:21.771Z,1018.49
2019-05-15T01:33:21.749Z,1018.44
2019-05-15T01:34:21.747Z,1018.47
2019-05-15T01:35:21.706Z,1018.42
2019-05-15T01:36:21.686Z,1018.44
2019-05-15T01:37:21.658Z,1018.37
2019-05-15T01:38:21.638Z,1018.38
2019-05-15T01:39:21.636Z,1018.40
2019-05-15T01:40:21.593Z,1018.39
2019-05-15T01:41:21.569Z,1018.38
2019-05-15T01:42:21.548Z,1018.33
2019-05-15T01:43:21.531Z,1018.34
2019-05-15T01:44:21.519Z,1018.30
2019-05-15T01:45:21.479Z,1018.31
2019-05-15T01:46:21.458Z,1018.31
2019-05-15T01:47:21.437Z,1018.25
2019-05-15T01:48:21.413Z,1018.27
2019-05-15T01:49:21.412Z,1018.28
2019-05-15T01:50:21.370Z,1018.28
2019-05-15T01:51:21.347Z,1018.28
2019-05-15T01:52:21.322Z,1018.22
2019-05-15T01:53:21.302Z,1018.28
2019-05-15T01:54:21.282Z,1018.25
2019-05-15T01:55:21.273Z,1018.27
2019-05-15T01:56:21.233Z,1018.27
2019-05-15T01:57:21.211Z,1018.24
2019-05-15T01:58:21.190Z,1018.28
2019-05-15T01:59:21.170Z,1018.23
2019-05-15T02:00:21.159Z,1018.26
2019-05-15T02:01:21.129Z,1018.23
2019-05-15T02:02:21.099Z,1018.26
2019-05-15T02:03:21.076Z,1018.28
2019-05-15T02:04:21.061Z,1018.24
2019-05-15T02:05:21.046Z,1018.22
2019-05-15T02:06:21.009Z,1018.27
2019-05-15T02:07:20.986Z,1018.27
2019-05-15T02:08:20.964Z,1018.27
2019-05-15T02:09:20.944Z,1018.25
2019-05-15T02:10:20.936Z,1018.23
2019-05-15T02:11:20.896Z,1018.21
2019-05-15T02:12:20.874Z,1018.22
2019-05-15T02:13:20.850Z,1018.19
2019-05-15T02:14:20.830Z,1018.23
2019-05-15T02:15:20.821Z,1018.21
2019-05-15T02:16:20.783Z,1018.19
2019-05-15T02:17:20.764Z,1018.19
2019-05-15T02:18:20.739Z,1018.18
2019-05-15T02:19:20.717Z,1018.21
2019-05-15T02:20:20.709Z,1018.19
2019-05-15T02:21:20.673Z,1018.19
2019-05-15T02:22:20.648Z,1018.17
2019-05-15T02:23:20.625Z,1018.22
2019-05-15T02:24:20.601Z,1018.21
2019-05-15T02:25:20.594Z,1018.21
2019-05-15T02:26:20.558Z,1018.19
2019-05-15T02:27:20.537Z,1018.17
2019-05-15T02:28:20.510Z,1018.20
2019-05-15T02:29:25.149Z,1018.19
2019-05-15T02:30:28.298Z,1018.17
2019-05-15T02:31:20.444Z,1018.12
2019-05-15T02:32:20.423Z,1018.10
2019-05-15T02:33:20.399Z,1018.10
2019-05-15T02:34:20.386Z,1018.10
2019-05-15T02:35:20.354Z,1018.12
2019-05-15T02:36:20.882Z,1018.13
2019-05-15T02:37:20.317Z,1018.11
2019-05-15T02:38:20.385Z,1018.13
2019-05-15T02:39:20.266Z,1018.10
2019-05-15T02:40:20.248Z,1018.09
2019-05-15T02:41:20.231Z,1018.11
2019-05-15T02:42:20.195Z,1018.08
2019-05-15T02:43:20.176Z,1018.10
2019-05-15T02:44:20.298Z,1018.04
2019-05-15T02:45:20.126Z,1018.06
2019-05-15T02:46:20.125Z,1018.06
2019-05-15T02:47:20.278Z,1018.11
2019-05-15T02:48:20.218Z,1018.09
2019-05-15T02:49:20.049Z,1018.07
2019-05-15T02:50:20.482Z,1018.07
2019-05-15T02:51:19.989Z,1018.09
2019-05-15T02:52:20.232Z,1018.10
2019-05-15T06:33:22.952Z,1018.31
2019-05-15T06:34:22.916Z,1018.30
2019-05-15T06:35:22.894Z,1018.30
2019-05-15T06:36:22.889Z,1018.27
2019-05-15T06:37:23.103Z,1018.33
2019-05-15T06:38:22.833Z,1018.31
2019-05-15T06:39:22.879Z,1018.33
2019-05-15T06:40:22.836Z,1018.29
2019-05-15T06:41:22.790Z,1018.33
2019-05-15T06:42:22.753Z,1018.32
2019-05-15T06:43:32.104Z,1018.33
2019-05-15T06:44:22.709Z,1018.35
2019-05-15T06:45:22.691Z,1018.28
2019-05-15T06:46:22.668Z,1018.27
2019-05-15T06:47:22.666Z,1018.31
2019-05-15T06:48:22.635Z,1018.31
2019-05-15T06:49:22.612Z,1018.30
2019-05-15T06:50:22.598Z,1018.33
2019-05-15T06:51:22.573Z,1018.29
2019-05-15T06:52:22.566Z,1018.29
2019-05-15T06:53:22.535Z,1018.30
2019-05-15T06:54:22.517Z,1018.28
2019-05-15T06:55:22.499Z,1018.25
2019-05-15T06:56:22.481Z,1018.25
2019-05-15T06:57:22.487Z,1018.22
2019-05-15T06:58:25.028Z,1018.25
2019-05-15T06:59:22.424Z,1018.24
2019-05-15T07:00:22.407Z,1018.24
2019-05-15T07:01:22.387Z,1018.26
2019-05-15T07:02:22.386Z,1018.24
2019-05-15T07:03:25.735Z,1018.23
2019-05-15T07:04:22.334Z,1018.27
2019-05-15T07:05:22.329Z,1018.17
2019-05-15T07:06:22.296Z,1018.19
2019-05-15T07:07:22.278Z,1018.13
2019-05-15T07:08:22.276Z,1018.17
2019-05-15T07:09:22.248Z,1018.20
2019-05-15T07:10:22.228Z,1018.20
2019-05-15T07:11:22.207Z,1018.20
2019-05-15T07:12:22.189Z,1018.18
2019-05-15T07:13:22.185Z,1018.18
2019-05-15T07:14:22.156Z,1018.15
2019-05-15T07:15:22.137Z,1018.11
2019-05-15T07:16:22.122Z,1018.08
2019-05-15T09:42:57.935Z,1016.47
2019-05-15T09:43:57.993Z,1016.51
2019-05-15T09:44:58.308Z,1016.49
2019-05-15T09:45:58.420Z,1016.51
2019-05-15T09:46:58.464Z,1016.45
2019-05-15T09:47:58.928Z,1016.43
2019-05-15T09:48:59.352Z,1016.41
2019-05-15T09:49:58.913Z,1016.42
2019-05-15T09:50:58.721Z,1016.35
2019-05-15T09:52:00.539Z,1016.37
2019-05-15T09:52:58.854Z,1016.37
2019-05-15T09:53:59.578Z,1016.39
2019-05-15T09:54:59.308Z,1016.33
2019-05-15T09:55:59.856Z,1016.30
2019-05-15T09:56:58.520Z,1016.30
2019-05-15T09:57:59.085Z,1016.31
2019-05-15T09:58:58.160Z,1016.34
2019-05-15T09:59:58.637Z,1016.29
2019-05-15T10:00:57.566Z,1016.30
2019-05-15T10:01:58.871Z,1016.37
2019-05-15T10:02:57.514Z,1016.32
2019-05-15T10:03:57.495Z,1016.34
2019-05-15T10:05:06.109Z,1016.37
2019-05-15T10:05:57.476Z,1016.38
2019-05-15T10:06:57.442Z,1016.31
2019-05-15T10:07:57.431Z,1016.36
2019-05-15T10:08:57.412Z,1016.29
2019-05-15T10:09:57.392Z,1016.29
2019-05-15T10:10:59.346Z,1016.29
2019-05-15T10:11:57.361Z,1016.27
2019-05-15T10:12:59.435Z,1016.17
2019-05-15T10:54:38.070Z,1015.74
2019-05-15T10:55:39.083Z,1015.72
2019-05-15T10:56:38.369Z,1015.72
2019-05-15T10:57:35.952Z,1015.74
2019-05-15T10:58:35.909Z,1015.71
2019-05-15T10:59:35.896Z,1015.67
2019-05-15T11:00:35.877Z,1015.69
2019-05-15T11:01:38.392Z,1015.68
2019-05-15T11:02:35.844Z,1015.62
2019-05-15T11:03:35.848Z,1015.64
2019-05-15T11:04:35.812Z,1015.67
2019-05-15T11:05:41.837Z,1015.70
2019-05-15T11:06:35.783Z,1015.69
2019-05-15T11:07:35.771Z,1015.65
2019-05-15T11:08:35.764Z,1015.68
2019-05-15T11:09:37.554Z,1015.67
2019-05-15T11:10:38.673Z,1015.67
2019-05-15T11:11:35.702Z,1015.59
2019-05-15T11:12:35.689Z,1015.60
2019-05-15T11:13:38.018Z,1015.61
2019-05-15T11:14:37.870Z,1015.60
2019-05-15T11:15:38.763Z,1015.61
2019-05-15T11:16:35.628Z,1015.60
2019-05-15T11:17:38.329Z,1015.58
2019-05-15T11:18:35.701Z,1015.53
2019-05-15T11:19:37.253Z,1015.46
2019-05-15T11:20:35.569Z,1015.49
2019-05-15T11:21:35.549Z,1015.41
2019-05-15T11:22:35.535Z,1015.34
2019-05-15T11:23:35.519Z,1015.33
2019-05-15T11:24:38.368Z,1015.36
2019-05-15T11:25:37.672Z,1015.42
2019-05-15T11:26:35.476Z,1015.37
2019-05-15T11:27:35.466Z,1015.37
2019-05-15T11:28:38.733Z,1015.34
2019-05-15T11:29:35.448Z,1015.28
2019-05-15T11:30:35.418Z,1015.35
2019-05-15T11:31:35.406Z,1015.33
2019-05-15T11:32:35.401Z,1015.28
2019-05-15T11:33:35.376Z,1015.27
2019-05-15T11:34:35.384Z,1015.29
2019-05-15T11:35:35.351Z,1015.28
2019-05-15T11:36:35.334Z,1015.26
2019-05-15T11:37:35.337Z,1015.23
2019-05-15T11:38:35.304Z,1015.24
2019-05-15T11:39:35.311Z,1015.23
2019-05-15T11:40:35.279Z,1015.16
2019-05-15T11:41:35.264Z,1015.21
2019-05-15T11:42:35.250Z,1015.21
2019-05-15T11:43:35.876Z,1015.19
2019-05-15T11:44:35.242Z,1015.23
2019-05-15T11:45:35.208Z,1015.18
2019-05-15T11:46:35.203Z,1015.20
2019-05-15T11:47:35.183Z,1015.21
2019-05-15T11:48:35.171Z,1015.16
2019-05-15T11:49:35.172Z,1015.18
2019-05-15T11:50:35.146Z,1015.15
2019-05-15T11:51:35.133Z,1015.10
2019-05-15T11:52:37.364Z,1015.11
2019-05-15T11:53:35.110Z,1015.09
2019-05-15T11:54:35.110Z,1015.08
2019-05-15T11:55:35.084Z,1015.08
2019-05-15T11:56:35.072Z,1015.08
2019-05-15T11:57:42.485Z,1015.00
2019-05-15T11:58:35.044Z,1015.04
2019-05-15T11:59:35.059Z,1015.07
2019-05-15T12:00:35.021Z,1015.01
2019-05-15T12:01:35.010Z,1015.05
2019-05-15T12:02:34.992Z,1015.04
2019-05-15T12:03:34.980Z,1015.02
2019-05-15T12:04:34.967Z,1015.04
2019-05-15T12:05:34.971Z,1015.02
2019-05-15T12:06:34.946Z,1015.03
2019-05-15T12:07:34.929Z,1015.00
2019-05-15T12:08:34.915Z,1015.01
2019-05-15T12:09:34.902Z,1014.98
2019-05-15T12:10:34.906Z,1014.96
2019-05-15T12:11:37.357Z,1014.97
2019-05-15T12:12:34.861Z,1014.94
2019-05-15T12:13:34.850Z,1014.94
2019-05-15T12:14:34.840Z,1014.90
2019-05-15T12:15:34.850Z,1014.90
2019-05-15T12:16:36.286Z,1014.89
2019-05-15T12:17:34.797Z,1014.88
2019-05-15T12:18:34.784Z,1014.84
2019-05-15T12:19:34.771Z,1014.87
2019-05-15T12:20:34.758Z,1014.82
2019-05-15T12:21:34.761Z,1014.84
2019-05-15T12:22:34.732Z,1014.81
2019-05-15T12:23:34.719Z,1014.86
2019-05-15T12:24:36.819Z,1014.88
2019-05-15T12:25:34.693Z,1014.89
2019-05-15T12:26:34.699Z,1014.82
2019-05-15T12:27:34.669Z,1014.81
2019-05-15T12:28:34.655Z,1014.80
2019-05-15T12:29:34.646Z,1014.77
2019-05-15T12:30:34.630Z,1014.79
2019-05-15T12:31:34.639Z,1014.82
2019-05-15T12:32:36.734Z,1014.80
2019-05-15T12:33:34.594Z,1014.78
2019-05-15T12:34:34.580Z,1014.79
2019-05-15T12:35:34.569Z,1014.81
2019-05-15T12:36:51.347Z,1014.85
2019-05-15T12:37:34.558Z,1014.80
2019-05-15T12:38:34.531Z,1014.83
2019-05-15T12:39:34.518Z,1014.76
2019-05-15T13:00:34.273Z,1014.65
2019-05-15T13:01:34.262Z,1014.60
2019-05-15T13:02:34.267Z,1014.65
2019-05-15T13:03:34.235Z,1014.65
2019-05-15T13:04:34.225Z,1014.62
2019-05-15T13:05:34.214Z,1014.65
2019-05-15T13:06:47.364Z,1014.68
2019-05-15T13:07:34.194Z,1014.69
2019-05-15T13:08:34.198Z,1014.59
2019-05-15T13:09:34.172Z,1014.60
2019-05-15T13:10:34.166Z,1014.62
2019-05-15T13:11:34.149Z,1014.56
2019-05-15T13:12:34.139Z,1014.55
2019-05-15T13:13:34.144Z,1014.62
2019-05-15T13:14:34.122Z,1014.54
2019-05-15T13:15:34.119Z,1014.57
2019-05-15T13:16:34.104Z,1014.52
2019-05-15T13:17:34.090Z,1014.49
2019-05-15T13:18:34.097Z,1014.45
2019-05-15T13:19:34.071Z,1014.45
2019-05-15T13:20:34.062Z,1014.42
2019-05-15T13:21:34.076Z,1014.49
2019-05-15T13:22:36.316Z,1014.49
2019-05-15T13:23:34.047Z,1014.58
2019-05-15T13:24:34.023Z,1014.59
2019-05-15T13:25:34.010Z,1014.59
2019-05-15T13:26:34.003Z,1014.60
2019-05-15T13:27:33.991Z,1014.59
2019-05-15T13:28:33.982Z,1014.56
2019-05-15T13:29:33.990Z,1014.57
2019-05-15T13:30:33.968Z,1014.50
2019-05-15T13:31:33.953Z,1014.53
2019-05-15T13:32:33.946Z,1014.55
2019-05-15T13:33:33.938Z,1014.55
2019-05-15T13:34:33.943Z,1014.56
2019-05-15T13:35:33.924Z,1014.53
2019-05-15T13:36:33.912Z,1014.50
2019-05-15T13:37:33.903Z,1014.53
2019-05-15T13:38:33.894Z,1014.48
2019-05-15T13:39:33.903Z,1014.48
2019-05-15T13:40:37.911Z,1014.46
2019-05-15T13:41:33.870Z,1014.47
2019-05-15T13:42:33.861Z,1014.44
2019-05-15T13:43:33.854Z,1014.48
2019-05-15T13:44:33.861Z,1014.49
2019-05-15T13:45:33.839Z,1014.55
2019-05-15T13:46:33.831Z,1014.56
2019-05-15T13:47:33.823Z,1014.45
2019-05-15T13:48:33.815Z,1014.56
2019-05-15T13:49:33.831Z,1014.60
2019-05-15T13:50:33.844Z,1014.60
2019-05-15T13:51:33.793Z,1014.54
2019-05-15T13:52:33.789Z,1014.51
2019-05-15T13:53:33.782Z,1014.45
2019-05-15T13:54:33.775Z,1014.55
2019-05-15T13:55:37.195Z,1014.54
2019-05-15T13:56:33.761Z,1014.54
2019-05-15T13:57:33.758Z,1014.49
2019-05-15T13:58:33.748Z,1014.47
2019-05-15T13:59:33.740Z,1014.41
2019-05-15T14:00:33.752Z,1014.41
2019-05-15T14:01:33.729Z,1014.48
2019-05-15T14:02:33.721Z,1014.44
2019-05-15T14:03:33.722Z,1014.44
2019-05-15T14:04:33.708Z,1014.44
2019-05-15T14:05:33.718Z,1014.40
2019-05-15T14:06:33.695Z,1014.44
2019-05-15T14:07:48.334Z,1014.37
2019-05-15T14:08:33.683Z,1014.39
2019-05-15T14:09:34.612Z,1014.37
2019-05-15T14:10:33.688Z,1014.37
2019-05-15T14:11:33.664Z,1014.37
2019-05-15T14:12:33.661Z,1014.36
2019-05-15T14:13:33.655Z,1014.31
2019-05-15T14:14:33.646Z,1014.29
2019-05-15T14:15:33.660Z,1014.25
2019-05-15T14:16:33.645Z,1014.28
2019-05-15T14:17:33.627Z,1014.26
2019-05-15T14:18:33.622Z,1014.26
2019-05-15T14:19:33.619Z,1014.25
2019-05-15T14:20:33.628Z,1014.28
2019-05-15T14:21:33.604Z,1014.29
2019-05-15T14:22:33.600Z,1014.30
2019-05-15T14:23:33.595Z,1014.28
2019-05-15T14:24:33.590Z,1014.27
2019-05-15T14:25:33.597Z,1014.27
2019-05-15T14:26:33.577Z,1014.28
2019-05-15T14:27:33.572Z,1014.25
2019-05-15T14:28:33.565Z,1014.30
2019-05-15T14:29:33.559Z,1014.23
2019-05-15T14:30:33.570Z,1014.20
2019-05-15T14:31:36.404Z,1014.20
2019-05-15T14:32:38.587Z,1014.13
2019-05-15T14:33:33.542Z,1014.15
2019-05-15T14:34:33.537Z,1014.12
2019-05-15T14:35:33.564Z,1014.07
2019-05-15T14:36:33.524Z,1014.06
2019-05-15T14:37:33.519Z,1014.00
2019-05-15T14:38:33.513Z,1014.02
2019-05-15T14:39:33.530Z,1013.98
2019-05-15T14:40:33.505Z,1013.99
2019-05-15T14:41:33.511Z,1013.96
2019-05-15T14:42:33.496Z,1014.03
2019-05-15T14:43:33.489Z,1013.95
2019-05-15T14:44:33.498Z,1014.02
2019-05-15T14:45:33.479Z,1014.03
2019-05-15T14:46:33.552Z,1013.99
2019-05-15T14:47:33.471Z,1014.00
2019-05-15T14:48:33.465Z,1013.99
2019-05-15T14:49:35.440Z,1014.00
2019-05-15T14:50:33.453Z,1013.95
2019-05-15T14:51:33.463Z,1013.88
2019-05-15T14:52:33.442Z,1013.81
2019-05-15T14:53:33.437Z,1013.84
2019-05-15T14:54:33.443Z,1013.89
2019-05-15T14:55:34.700Z,1013.89
2019-05-15T14:56:33.437Z,1013.98
2019-05-15T14:57:33.415Z,1014.04
2019-05-15T14:58:33.413Z,1014.10
2019-05-15T14:59:33.409Z,1014.12
2019-05-15T15:00:35.060Z,1014.25
2019-05-15T15:01:33.427Z,1014.41
2019-05-15T15:02:33.396Z,1014.54
2019-05-15T15:03:33.398Z,1014.51
2019-05-15T15:04:33.389Z,1014.47
2019-05-15T15:05:33.383Z,1014.38
2019-05-15T15:06:33.380Z,1014.37
2019-05-15T15:07:33.391Z,1014.49
2019-05-15T15:08:33.371Z,1014.36
2019-05-15T15:09:33.364Z,1014.37
2019-05-15T15:10:33.365Z,1013.72
2019-05-15T15:11:33.358Z,1013.80
2019-05-15T15:12:33.371Z,1014.13
2019-05-15T15:13:33.347Z,1014.20
2019-05-15T15:14:33.344Z,1014.12
2019-05-15T15:15:33.342Z,1014.13
2019-05-15T15:16:33.334Z,1014.10
2019-05-15T15:17:33.367Z,1013.90
2019-05-15T15:18:33.325Z,1014.18
2019-05-15T15:19:33.321Z,1014.19
2019-05-15T15:20:33.317Z,1014.17
2019-05-15T15:21:33.313Z,1014.33
2019-05-15T15:22:33.303Z,1014.43
2019-05-15T15:23:33.321Z,1014.48
2019-05-15T15:24:33.296Z,1014.53
2019-05-15T15:25:33.287Z,1014.62
2019-05-15T15:26:33.298Z,1014.68
2019-05-15T15:27:33.279Z,1014.00
2019-05-15T15:28:33.292Z,1014.82
2019-05-15T15:29:33.270Z,1014.89
2019-05-15T15:30:33.267Z,1014.93
2019-05-15T15:31:33.265Z,1015.02
2019-05-15T15:32:33.277Z,1014.99
2019-05-15T15:33:33.273Z,1014.86
2019-05-15T15:34:33.258Z,1014.38
2019-05-15T15:35:33.250Z,1013.86
2019-05-15T15:36:33.247Z,1014.40
2019-05-15T15:37:33.239Z,1014.47
2019-05-15T15:38:40.785Z,1013.69
2019-05-15T15:39:33.236Z,1014.42
2019-05-15T15:40:33.231Z,1014.33
2019-05-15T15:41:33.225Z,1014.21
2019-05-15T15:42:33.221Z,1014.14
2019-05-15T15:43:33.231Z,1014.13
2019-05-15T15:44:33.210Z,1014.06
2019-05-15T15:45:33.207Z,1013.62
2019-05-15T15:46:33.204Z,1013.61
2019-05-15T15:47:33.202Z,1013.98
2019-05-15T15:48:33.212Z,1014.01
2019-05-15T15:49:33.192Z,1014.08
2019-05-15T15:50:33.190Z,1014.04
2019-05-15T15:51:33.183Z,1013.92
2019-05-15T15:52:33.181Z,1013.56
2019-05-15T15:53:33.198Z,1013.93
2019-05-15T15:54:33.174Z,1013.90
2019-05-15T15:55:33.171Z,1013.90
2019-05-15T15:56:33.166Z,1013.94
2019-05-15T15:57:33.160Z,1013.91
2019-05-15T15:58:33.155Z,1013.92
2019-05-15T15:59:33.185Z,1013.86
2019-05-15T16:00:33.149Z,1013.92
2019-05-15T16:01:33.145Z,1013.91
2019-05-15T16:02:33.142Z,1013.93
2019-05-15T16:03:33.145Z,1013.91
2019-05-15T16:04:33.150Z,1013.93
2019-05-15T16:05:33.133Z,1013.92
2019-05-15T16:06:33.143Z,1013.96
2019-05-15T16:07:33.124Z,1013.91
2019-05-15T16:08:33.123Z,1013.99
2019-05-15T16:09:33.134Z,1013.93
2019-05-15T16:10:33.115Z,1013.94
2019-05-15T16:11:33.112Z,1013.91
2019-05-15T16:12:33.109Z,1013.88
2019-05-15T16:13:33.107Z,1013.88
2019-05-15T16:14:33.124Z,1013.95
2019-05-15T16:15:33.101Z,1013.90
2019-05-15T16:16:33.097Z,1013.86
2019-05-15T16:17:33.096Z,1013.88
2019-05-15T16:18:33.098Z,1013.87
2019-05-15T16:19:33.089Z,1013.89
2019-05-15T16:20:33.103Z,1013.84
2019-05-15T16:21:33.084Z,1013.82
2019-05-15T16:22:33.079Z,1013.83
2019-05-15T16:23:33.080Z,1013.79
2019-05-15T16:24:33.076Z,1013.81
2019-05-15T16:25:33.109Z,1013.82
2019-05-15T16:26:33.075Z,1013.87
2019-05-15T16:27:33.067Z,1013.80
2019-05-15T16:28:33.068Z,1013.81
2019-05-15T16:29:33.060Z,1013.79
2019-05-15T16:30:40.767Z,1013.76
2019-05-15T16:31:33.069Z,1013.74
2019-05-15T16:32:33.052Z,1013.76
2019-05-15T16:33:33.047Z,1013.74
2019-05-15T16:34:33.045Z,1013.78
2019-05-15T16:35:33.043Z,1013.73
2019-05-15T16:36:33.054Z,1013.71
2019-05-15T16:37:33.036Z,1013.71
2019-05-15T16:38:33.035Z,1013.72
2019-05-15T16:39:33.033Z,1013.71
2019-05-15T16:40:33.030Z,1013.71
2019-05-15T16:41:33.046Z,1013.63
2019-05-15T16:42:33.022Z,1013.65
2019-05-15T16:43:33.025Z,1013.64
2019-05-15T16:44:33.020Z,1013.65
2019-05-15T16:45:33.016Z,1013.62
2019-05-15T16:46:33.037Z,1013.60
2019-05-15T16:47:33.007Z,1013.59
2019-05-15T16:48:33.004Z,1013.61
2019-05-15T16:49:33.003Z,1013.63
2019-05-15T16:50:33.002Z,1013.64
2019-05-15T16:51:33.012Z,1013.61
2019-05-15T16:52:32.994Z,1013.71
2019-05-15T16:53:32.993Z,1013.63
2019-05-15T16:54:32.986Z,1013.63
2019-05-15T16:55:33.005Z,1013.61
2019-05-15T16:56:36.312Z,1013.60
2019-05-15T16:57:32.979Z,1013.58
2019-05-15T16:58:32.981Z,1013.63
2019-05-15T16:59:35.929Z,1013.63
2019-05-15T17:00:32.969Z,1013.62
2019-05-15T17:01:32.980Z,1013.63
2019-05-15T17:02:32.963Z,1013.64
2019-05-15T17:03:32.962Z,1013.63
2019-05-15T17:04:42.304Z,1013.68
2019-05-15T17:05:32.951Z,1013.66
2019-05-15T17:06:32.962Z,1013.66
2019-05-15T17:07:32.944Z,1013.68
2019-05-15T17:08:32.942Z,1013.69
2019-05-15T17:09:32.955Z,1013.70
2019-05-15T17:10:32.933Z,1013.71
2019-05-15T17:11:32.954Z,1013.73
2019-05-15T17:12:32.930Z,1013.70
2019-05-15T17:13:32.924Z,1013.69
2019-05-15T17:14:32.919Z,1013.73
2019-05-15T17:15:32.921Z,1013.76
2019-05-15T17:16:32.916Z,1013.70
2019-05-15T17:17:32.929Z,1013.70
2019-05-15T17:18:32.909Z,1013.64
2019-05-15T17:19:32.907Z,1013.65
2019-05-15T17:20:32.903Z,1013.77
2019-05-15T17:21:32.900Z,1013.76
2019-05-15T17:22:32.925Z,1013.62
2019-05-15T17:23:32.895Z,1013.70
2019-05-15T17:24:32.893Z,1013.70
2019-05-15T17:25:32.891Z,1013.64
2019-05-15T17:26:32.886Z,1013.68
2019-05-15T17:27:32.884Z,1013.65
2019-05-15T17:28:32.892Z,1013.61
2019-05-15T17:29:32.878Z,1013.51
2019-05-15T17:30:32.869Z,1013.48
2019-05-15T17:31:32.864Z,1013.35
2019-05-15T17:32:32.861Z,1013.17
2019-05-15T17:33:32.880Z,1013.18
2019-05-15T17:34:32.853Z,1013.15
2019-05-15T17:35:32.850Z,1013.16
2019-05-15T17:36:32.843Z,1013.17
2019-05-15T17:37:32.834Z,1013.18
2019-05-15T17:38:32.846Z,1013.17
2019-05-15T17:39:38.121Z,1013.15
2019-05-15T17:40:32.821Z,1013.16
2019-05-15T17:41:32.813Z,1013.16
2019-05-15T17:42:32.803Z,1013.19
2019-05-15T17:43:32.812Z,1013.30
2019-05-15T17:44:32.789Z,1013.29
2019-05-15T17:45:32.794Z,1013.26
2019-05-15T17:46:32.771Z,1013.24
2019-05-15T17:47:32.763Z,1013.11
2019-05-15T17:48:32.769Z,1013.16
2019-05-15T17:49:32.746Z,1013.10
2019-05-15T17:50:44.904Z,1013.08
2019-05-15T17:51:32.728Z,1013.09
2019-05-15T17:52:32.722Z,1013.07
2019-05-15T17:53:32.725Z,1013.13
2019-05-15T17:54:32.702Z,1013.12
2019-05-15T17:55:32.689Z,1013.14
2019-05-15T17:56:32.686Z,1013.16
2019-05-15T17:57:32.669Z,1013.12
2019-05-15T17:58:32.674Z,1013.12
2019-05-15T17:59:32.652Z,1013.08
2019-05-15T18:00:32.652Z,1013.06
2019-05-15T18:01:32.627Z,1013.07
2019-05-15T18:02:32.617Z,1013.03
2019-05-15T18:03:32.624Z,1013.06
2019-05-15T18:04:32.595Z,1013.05
2019-05-15T18:05:32.582Z,1013.00
2019-05-15T18:06:32.570Z,1013.01
2019-05-15T18:07:32.562Z,1013.05
2019-05-15T18:08:32.563Z,1013.03
2019-05-15T18:09:32.537Z,1013.08
2019-05-15T18:10:32.526Z,1013.03
2019-05-15T18:11:32.538Z,1013.05
2019-05-15T18:12:32.504Z,1013.06
2019-05-15T18:13:32.501Z,1013.03
2019-05-15T18:14:32.473Z,1013.05
2019-05-15T18:15:32.483Z,1013.05
2019-05-15T18:16:32.448Z,1013.02
2019-05-15T18:17:32.437Z,1013.03
2019-05-15T18:18:32.434Z,1013.01
2019-05-15T18:19:32.445Z,1013.00
2019-05-15T18:20:32.422Z,1012.96
2019-05-15T18:21:32.380Z,1012.96
2019-05-15T18:22:32.370Z,1012.98
2019-05-15T18:23:32.370Z,1012.97
2019-05-15T18:24:32.340Z,1012.92
2019-05-15T18:25:32.326Z,1013.05
2019-05-15T18:26:32.313Z,1013.00
2019-05-15T18:27:32.298Z,1012.99
2019-05-15T18:28:32.285Z,1012.99
2019-05-15T18:29:32.283Z,1013.01
2019-05-15T18:30:32.257Z,1012.99
2019-05-15T18:31:32.244Z,1013.01
2019-05-15T18:32:32.237Z,1013.02
2019-05-15T18:33:32.213Z,1013.03
2019-05-15T18:34:32.235Z,1013.06
2019-05-15T18:35:32.942Z,1013.07
2019-05-15T18:36:32.179Z,1013.12
2019-05-15T18:37:32.159Z,1013.10
2019-05-15T18:38:32.146Z,1013.08
2019-05-15T18:39:32.144Z,1013.10
2019-05-15T18:40:32.115Z,1013.06
2019-05-15T18:41:32.101Z,1013.09
2019-05-15T18:42:32.086Z,1013.09
2019-05-15T18:43:32.071Z,1013.11
2019-05-15T18:44:32.073Z,1013.11
2019-05-15T18:45:32.043Z,1013.13
2019-05-15T18:46:32.027Z,1013.10
2019-05-15T18:47:32.012Z,1013.15
2019-05-15T18:48:32.003Z,1013.15
2019-05-15T18:49:32.018Z,1013.15
2019-05-15T18:50:31.969Z,1013.17
2019-05-15T18:51:31.953Z,1013.13
2019-05-15T18:52:31.944Z,1013.13
2019-05-15T18:53:31.922Z,1013.11
2019-05-15T18:54:31.910Z,1013.13
2019-05-15T18:55:31.908Z,1013.15
2019-05-15T18:56:31.879Z,1013.13
2019-05-15T18:57:31.879Z,1013.15
2019-05-15T18:58:31.852Z,1013.10
2019-05-15T18:59:31.831Z,1013.12
2019-05-15T19:00:31.836Z,1013.09
2019-05-15T19:01:31.798Z,1013.16
2019-05-15T19:02:31.785Z,1013.16
2019-05-15T19:03:31.769Z,1013.10
2019-05-15T19:04:31.755Z,1013.14
2019-05-15T19:05:31.750Z,1013.15
2019-05-15T19:06:31.722Z,1013.17
2019-05-15T19:07:31.709Z,1013.20
2019-05-15T19:08:31.692Z,1013.19
2019-05-15T19:09:31.677Z,1013.17
2019-05-15T19:10:31.678Z,1013.17
2019-05-15T19:11:31.646Z,1013.20